createdAt,value
2023-05-05T00:00:20.380Z,95158.00
2023-05-05T00:01:20.461Z,95168.00
2023-05-05T00:02:20.502Z,95168.00
2023-05-05T00:03:20.563Z,95168.00
2023-05-05T00:04:20.677Z,95168.00
2023-05-05T00:05:20.600Z,95158.00
2023-05-05T00:06:20.638Z,95160.00
2023-05-05T00:07:20.732Z,95168.00
2023-05-05T00:08:21.029Z,95170.00
2023-05-05T00:09:20.800Z,95172.00
2023-05-05T00:10:20.864Z,95168.00
2023-05-05T00:11:20.924Z,95170.00
2023-05-05T00:12:20.961Z,95170.00
2023-05-05T00:13:21.058Z,95174.00
2023-05-05T00:14:21.086Z,95170.00
2023-05-05T00:15:21.162Z,95168.00
2023-05-05T00:16:21.223Z,95168.00
2023-05-05T00:17:21.297Z,95170.00
2023-05-05T00:18:21.336Z,95168.00
2023-05-05T00:19:21.375Z,95170.00
2023-05-05T00:20:21.434Z,95172.00
2023-05-05T00:21:21.506Z,95170.00
2023-05-05T00:22:21.604Z,95170.00
2023-05-05T00:23:21.633Z,95174.00
2023-05-05T00:24:21.636Z,95174.00
2023-05-05T00:25:21.675Z,95172.00
2023-05-05T00:26:21.775Z,95174.00
2023-05-05T00:27:21.847Z,95168.00
2023-05-05T00:28:21.857Z,95168.00
2023-05-05T00:29:21.879Z,95170.00
2023-05-05T00:30:21.934Z,95170.00
2023-05-05T00:31:22.089Z,95168.00
2023-05-05T00:32:22.039Z,95168.00
2023-05-05T00:33:22.042Z,95170.00
2023-05-05T00:34:22.157Z,95168.00
2023-05-05T00:35:22.148Z,95170.00
2023-05-05T00:36:22.232Z,95170.00
2023-05-05T00:37:22.227Z,95172.00
2023-05-05T00:38:22.345Z,95174.00
2023-05-05T00:39:22.335Z,95174.00
2023-05-05T00:40:22.383Z,95174.00
2023-05-05T00:41:22.476Z,95174.00
2023-05-05T00:42:22.488Z,95176.00
2023-05-05T00:43:22.500Z,95176.00
2023-05-05T00:44:22.593Z,95176.00
2023-05-05T00:45:22.639Z,95174.00
2023-05-05T00:46:22.725Z,95174.00
2023-05-05T00:47:22.711Z,95160.00
2023-05-05T00:48:22.764Z,95174.00
2023-05-05T00:49:22.827Z,95172.00
2023-05-05T00:50:22.869Z,95172.00
2023-05-05T00:51:22.947Z,95170.00
2023-05-05T00:52:22.944Z,95172.00
2023-05-05T00:53:22.992Z,95172.00
2023-05-05T00:54:23.057Z,95174.00
2023-05-05T00:55:23.109Z,95172.00
2023-05-05T00:56:23.111Z,95172.00
2023-05-05T00:57:23.187Z,95176.00
2023-05-05T00:58:23.236Z,95178.00
2023-05-05T00:59:23.233Z,95178.00
2023-05-05T01:00:23.328Z,95178.00
2023-05-05T01:01:23.362Z,95174.00
2023-05-05T01:02:23.417Z,95176.00
2023-05-05T01:03:23.588Z,95174.00
2023-05-05T01:04:23.572Z,95170.00
2023-05-05T01:05:23.560Z,95170.00
2023-05-05T01:06:23.685Z,95160.00
2023-05-05T01:07:23.663Z,95170.00
2023-05-05T01:08:23.672Z,95172.00
2023-05-05T01:09:23.729Z,95168.00
2023-05-05T01:10:23.939Z,95168.00
2023-05-05T01:11:23.831Z,95158.00
2023-05-05T01:12:23.905Z,95160.00
2023-05-05T01:13:23.939Z,95158.00
2023-05-05T01:14:23.973Z,95156.00
2023-05-05T01:15:24.022Z,95156.00
2023-05-05T01:16:24.114Z,95156.00
2023-05-05T01:17:24.167Z,95156.00
2023-05-05T01:18:24.150Z,95156.00
2023-05-05T01:19:24.205Z,95156.00
2023-05-05T01:20:24.266Z,95158.00
2023-05-05T01:21:24.346Z,95158.00
2023-05-05T01:22:24.339Z,95160.00
2023-05-05T01:23:25.056Z,95170.00
2023-05-05T01:24:24.336Z,95168.00
2023-05-05T01:25:24.402Z,95156.00
2023-05-05T01:26:24.433Z,95156.00
2023-05-05T01:27:24.523Z,95158.00
2023-05-05T01:28:24.667Z,95172.00
2023-05-05T01:29:24.621Z,95172.00
2023-05-05T01:30:24.690Z,95174.00
2023-05-05T01:31:24.774Z,95172.00
2023-05-05T01:32:24.771Z,95176.00
2023-05-05T01:33:24.761Z,95176.00
2023-05-05T01:34:24.873Z,95176.00
2023-05-05T01:35:24.879Z,95172.00
2023-05-05T01:36:24.937Z,95180.00
2023-05-05T01:37:25.015Z,95174.00
2023-05-05T01:38:24.949Z,95172.00
2023-05-05T01:39:25.028Z,95174.00
2023-05-05T01:40:25.043Z,95174.00
2023-05-05T01:41:25.126Z,95176.00
2023-05-05T01:42:25.138Z,95178.00
2023-05-05T01:43:25.256Z,95178.00
2023-05-05T01:44:25.292Z,95176.00
2023-05-05T01:45:25.319Z,95178.00
2023-05-05T01:46:25.469Z,95178.00
2023-05-05T01:47:25.384Z,95176.00
2023-05-05T01:48:25.410Z,95178.00
2023-05-05T01:49:25.507Z,95176.00
2023-05-05T01:50:25.576Z,95182.00
2023-05-05T01:51:25.575Z,95184.00
2023-05-05T01:52:25.640Z,95184.00
2023-05-05T01:53:25.755Z,95182.00
2023-05-05T01:54:25.786Z,95182.00
2023-05-05T01:55:25.811Z,95182.00
2023-05-05T01:56:25.927Z,95182.00
2023-05-05T01:57:25.908Z,95186.00
2023-05-05T01:58:25.964Z,95184.00
2023-05-05T01:59:25.977Z,95184.00
2023-05-05T02:00:26.069Z,95186.00
2023-05-05T02:01:26.183Z,95186.00
2023-05-05T02:02:26.118Z,95186.00
2023-05-05T02:03:26.123Z,95188.00
2023-05-05T02:04:26.148Z,95186.00
2023-05-05T02:05:26.260Z,95186.00
2023-05-05T02:06:26.246Z,95182.00
2023-05-05T02:07:26.337Z,95182.00
2023-05-05T02:08:26.497Z,95182.00
2023-05-05T02:09:26.436Z,95184.00
2023-05-05T02:10:26.486Z,95186.00
2023-05-05T02:11:26.566Z,95182.00
2023-05-05T02:12:26.553Z,95190.00
2023-05-05T02:13:26.699Z,95190.00
2023-05-05T02:14:26.692Z,95186.00
2023-05-05T02:15:26.721Z,95186.00
2023-05-05T02:16:26.798Z,95188.00
2023-05-05T02:17:26.931Z,95188.00
2023-05-05T02:18:26.813Z,95188.00
2023-05-05T02:19:26.932Z,95188.00
2023-05-05T02:20:26.945Z,95190.00
2023-05-05T02:21:27.035Z,95188.00
2023-05-05T02:22:27.086Z,95188.00
2023-05-05T02:23:27.129Z,95190.00
2023-05-05T02:24:27.170Z,95191.00
2023-05-05T02:25:27.197Z,95191.00
2023-05-05T02:26:27.279Z,95191.00
2023-05-05T02:27:27.326Z,95190.00
2023-05-05T02:28:27.386Z,95191.00
2023-05-05T02:29:27.428Z,95188.00
2023-05-05T02:30:27.463Z,95190.00
2023-05-05T02:31:27.596Z,95191.00
2023-05-05T02:32:27.677Z,95193.00
2023-05-05T02:33:27.629Z,95191.00
2023-05-05T02:34:27.643Z,95195.00
2023-05-05T02:35:27.664Z,95191.00
2023-05-05T02:36:27.710Z,95193.00
2023-05-05T02:37:27.795Z,95191.00
2023-05-05T02:38:27.892Z,95193.00
2023-05-05T02:39:27.913Z,95193.00
2023-05-05T02:40:27.878Z,95197.00
2023-05-05T02:41:27.962Z,95197.00
2023-05-05T02:42:28.061Z,95197.00
2023-05-05T02:43:28.168Z,95199.00
2023-05-05T02:44:28.129Z,95197.00
2023-05-05T02:45:28.143Z,95197.00
2023-05-05T02:46:28.258Z,95199.00
2023-05-05T02:47:28.329Z,95199.00
2023-05-05T02:48:28.351Z,95199.00
2023-05-05T02:49:28.397Z,95197.00
2023-05-05T02:50:28.413Z,95197.00
2023-05-05T02:51:28.473Z,95195.00
2023-05-05T02:52:28.522Z,95199.00
2023-05-05T02:53:28.650Z,95195.00
2023-05-05T02:54:28.654Z,95195.00
2023-05-05T02:55:28.698Z,95197.00
2023-05-05T02:56:28.811Z,95199.00
2023-05-05T02:57:28.860Z,95197.00
2023-05-05T02:58:28.985Z,95197.00
2023-05-05T02:59:28.940Z,95197.00
2023-05-05T03:00:28.972Z,95199.00
2023-05-05T03:01:29.127Z,95199.00
2023-05-05T03:02:29.200Z,95197.00
2023-05-05T03:03:29.276Z,95201.00
2023-05-05T03:04:29.219Z,95203.00
2023-05-05T03:05:29.288Z,95201.00
2023-05-05T03:06:29.393Z,95203.00
2023-05-05T03:07:29.417Z,95203.00
2023-05-05T03:08:29.469Z,95205.00
2023-05-05T03:09:29.480Z,95203.00
2023-05-05T03:10:29.517Z,95207.00
2023-05-05T03:11:29.624Z,95207.00
2023-05-05T03:12:29.673Z,95201.00
2023-05-05T03:13:29.751Z,95205.00
2023-05-05T03:14:32.100Z,95203.00
2023-05-05T03:15:29.761Z,95205.00
2023-05-05T03:16:29.881Z,95201.00
2023-05-05T03:17:29.714Z,95199.00
2023-05-05T03:18:29.831Z,95199.00
2023-05-05T03:19:29.717Z,95199.00
2023-05-05T03:20:29.704Z,95199.00
2023-05-05T03:21:29.739Z,95199.00
2023-05-05T03:22:29.683Z,95199.00
2023-05-05T03:23:29.700Z,95199.00
2023-05-05T03:24:29.728Z,95199.00
2023-05-05T03:25:29.719Z,95199.00
2023-05-05T03:26:29.669Z,95199.00
2023-05-05T03:27:29.736Z,95201.00
2023-05-05T03:28:29.669Z,95199.00
2023-05-05T03:29:29.638Z,95197.00
2023-05-05T03:30:29.648Z,95197.00
2023-05-05T03:31:29.677Z,95199.00
2023-05-05T03:32:29.633Z,95199.00
2023-05-05T03:33:29.671Z,95193.00
2023-05-05T03:35:32.434Z,95201.00
2023-05-05T03:36:32.417Z,95201.00
2023-05-05T03:37:32.432Z,95205.00
2023-05-05T03:38:32.455Z,95205.00
2023-05-05T03:39:32.382Z,95203.00
2023-05-05T03:40:43.088Z,95203.00
2023-05-05T03:41:33.419Z,95203.00
2023-05-05T03:42:32.384Z,95201.00
2023-05-05T03:43:32.380Z,95201.00
2023-05-05T03:44:32.377Z,95205.00
2023-05-05T03:45:32.446Z,95203.00
2023-05-05T03:46:32.356Z,95201.00
2023-05-05T03:47:32.442Z,95203.00
2023-05-05T03:48:32.353Z,95203.00
2023-05-05T03:49:32.335Z,95205.00
2023-05-05T03:50:32.376Z,95205.00
2023-05-05T03:51:32.422Z,95203.00
2023-05-05T03:52:32.454Z,95201.00
2023-05-05T03:53:32.543Z,95201.00
2023-05-05T03:54:32.608Z,95201.00
2023-05-05T03:55:32.675Z,95199.00
2023-05-05T03:56:32.696Z,95199.00
2023-05-05T03:57:32.791Z,95199.00
2023-05-05T03:58:32.843Z,95199.00
2023-05-05T03:59:32.915Z,95197.00
2023-05-05T04:00:32.978Z,95197.00
2023-05-05T04:01:33.038Z,95213.00
2023-05-05T04:02:33.166Z,95215.00
2023-05-05T04:03:33.231Z,95219.00
2023-05-05T04:04:33.247Z,95219.00
2023-05-05T04:05:33.237Z,95217.00
2023-05-05T04:06:33.278Z,95215.00
2023-05-05T04:07:33.321Z,95219.00
2023-05-05T04:08:33.346Z,95217.00
2023-05-05T04:09:33.338Z,95221.00
2023-05-05T04:10:33.342Z,95223.00
2023-05-05T04:11:33.325Z,95221.00
2023-05-05T04:12:33.334Z,95223.00
2023-05-05T04:13:33.364Z,95227.00
2023-05-05T04:14:33.428Z,95227.00
2023-05-05T04:15:33.352Z,95225.00
2023-05-05T04:16:33.412Z,95227.00
2023-05-05T04:17:33.434Z,95223.00
2023-05-05T04:18:33.496Z,95227.00
2023-05-05T04:19:33.565Z,95227.00
2023-05-05T04:20:33.595Z,95227.00
2023-05-05T04:21:33.658Z,95229.00
2023-05-05T04:22:33.820Z,95225.00
2023-05-05T04:23:33.744Z,95229.00
2023-05-05T04:24:33.813Z,95229.00
2023-05-05T04:25:33.837Z,95229.00
2023-05-05T04:26:33.859Z,95227.00
2023-05-05T04:27:33.907Z,95231.00
2023-05-05T04:28:33.872Z,95227.00
2023-05-05T04:29:33.932Z,95229.00
2023-05-05T04:30:33.885Z,95207.00
2023-05-05T04:31:33.940Z,95207.00
2023-05-05T04:32:33.975Z,95205.00
2023-05-05T04:33:33.998Z,95209.00
2023-05-05T04:34:33.938Z,95209.00
2023-05-05T04:35:33.996Z,95209.00
2023-05-05T04:36:33.983Z,95213.00
2023-05-05T04:37:34.022Z,95211.00
2023-05-05T04:38:34.078Z,95211.00
2023-05-05T04:39:34.087Z,95215.00
2023-05-05T04:40:34.137Z,95217.00
2023-05-05T04:41:34.210Z,95217.00
2023-05-05T04:42:34.217Z,95221.00
2023-05-05T04:43:34.240Z,95221.00
2023-05-05T04:44:34.276Z,95221.00
2023-05-05T04:45:34.306Z,95223.00
2023-05-05T04:46:34.390Z,95219.00
2023-05-05T04:47:34.378Z,95223.00
2023-05-05T04:48:34.506Z,95225.00
2023-05-05T04:49:34.427Z,95225.00
2023-05-05T04:50:34.506Z,95225.00
2023-05-05T04:51:34.497Z,95221.00
2023-05-05T04:52:34.537Z,95217.00
2023-05-05T04:53:34.564Z,95217.00
2023-05-05T04:54:34.623Z,95217.00
2023-05-05T04:55:34.614Z,95217.00
2023-05-05T04:56:34.645Z,95219.00
2023-05-05T04:57:34.733Z,95219.00
2023-05-05T04:58:34.746Z,95223.00
2023-05-05T04:59:34.753Z,95225.00
2023-05-05T05:00:34.820Z,95225.00
2023-05-05T05:01:36.881Z,95225.00
2023-05-05T05:02:34.823Z,95227.00
2023-05-05T05:03:34.966Z,95225.00
2023-05-05T05:04:34.779Z,95225.00
2023-05-05T05:05:34.811Z,95227.00
2023-05-05T05:06:34.789Z,95231.00
2023-05-05T05:07:34.798Z,95231.00
2023-05-05T05:08:34.818Z,95229.00
2023-05-05T05:09:34.753Z,95229.00
2023-05-05T05:10:34.794Z,95229.00
2023-05-05T05:11:34.748Z,95227.00
2023-05-05T05:12:34.786Z,95229.00
2023-05-05T05:13:34.744Z,95233.00
2023-05-05T05:14:34.746Z,95235.00
2023-05-05T05:15:34.716Z,95235.00
2023-05-05T05:16:34.784Z,95235.00
2023-05-05T05:17:34.709Z,95237.00
2023-05-05T05:18:34.743Z,95235.00
2023-05-05T05:19:34.701Z,95235.00
2023-05-05T05:20:34.695Z,95235.00
2023-05-05T05:21:34.696Z,95229.00
2023-05-05T05:22:34.656Z,95233.00
2023-05-05T05:23:34.717Z,95233.00
2023-05-05T05:24:34.652Z,95231.00
2023-05-05T05:25:34.658Z,95229.00
2023-05-05T05:26:34.675Z,95229.00
2023-05-05T05:27:34.656Z,95229.00
2023-05-05T05:28:34.649Z,95229.00
2023-05-05T05:29:34.675Z,95229.00
2023-05-05T05:30:34.656Z,95229.00
2023-05-05T05:31:34.713Z,95231.00
2023-05-05T05:32:34.722Z,95229.00
2023-05-05T05:33:34.613Z,95229.00
2023-05-05T05:34:34.682Z,95229.00
2023-05-05T05:35:34.711Z,95233.00
2023-05-05T05:36:34.709Z,95238.00
2023-05-05T05:37:34.624Z,95233.00
2023-05-05T05:38:34.589Z,95237.00
2023-05-05T05:39:34.596Z,95238.00
2023-05-05T05:40:34.568Z,95238.00
2023-05-05T05:41:34.538Z,95238.00
2023-05-05T05:42:34.533Z,95240.00
2023-05-05T05:43:34.523Z,95238.00
2023-05-05T05:44:34.678Z,95240.00
2023-05-05T05:45:34.545Z,95240.00
2023-05-05T05:46:34.560Z,95240.00
2023-05-05T05:47:34.559Z,95238.00
2023-05-05T05:48:34.630Z,95237.00
2023-05-05T05:49:34.725Z,95238.00
2023-05-05T05:50:34.558Z,95256.00
2023-05-05T05:51:34.595Z,95258.00
2023-05-05T05:52:34.568Z,95256.00
2023-05-05T05:53:34.600Z,95254.00
2023-05-05T05:54:34.791Z,95256.00
2023-05-05T05:55:34.731Z,95254.00
2023-05-05T05:56:34.649Z,95258.00
2023-05-05T05:57:35.187Z,95256.00
2023-05-05T05:58:34.753Z,95258.00
2023-05-05T05:59:34.717Z,95256.00
2023-05-05T06:00:34.738Z,95256.00
2023-05-05T06:01:34.748Z,95258.00
2023-05-05T06:02:35.561Z,95258.00
2023-05-05T06:03:34.906Z,95260.00
2023-05-05T06:04:34.863Z,95258.00
2023-05-05T06:05:34.819Z,95260.00
2023-05-05T06:06:34.854Z,95258.00
2023-05-05T06:07:34.896Z,95260.00
2023-05-05T06:08:35.658Z,95260.00
2023-05-05T06:09:34.855Z,95260.00
2023-05-05T06:10:35.338Z,95260.00
2023-05-05T06:11:34.967Z,95260.00
2023-05-05T06:12:34.955Z,95262.00
2023-05-05T06:13:35.178Z,95258.00
2023-05-05T06:14:34.921Z,95258.00
2023-05-05T06:15:34.973Z,95260.00
2023-05-05T06:16:35.016Z,95260.00
2023-05-05T06:17:34.932Z,95260.00
2023-05-05T06:18:35.172Z,95256.00
2023-05-05T06:19:34.949Z,95256.00
2023-05-05T06:20:34.982Z,95256.00
2023-05-05T06:21:35.044Z,95254.00
2023-05-05T06:22:34.993Z,95258.00
2023-05-05T06:23:35.009Z,95256.00
2023-05-05T06:24:34.983Z,95254.00
2023-05-05T06:25:35.019Z,95254.00
2023-05-05T06:26:35.016Z,95252.00
2023-05-05T06:27:35.027Z,95248.00
2023-05-05T06:28:35.168Z,95250.00
2023-05-05T06:29:35.051Z,95246.00
2023-05-05T06:30:35.067Z,95248.00
2023-05-05T06:31:35.086Z,95246.00
2023-05-05T06:32:35.044Z,95246.00
2023-05-05T06:33:35.081Z,95244.00
2023-05-05T06:34:35.101Z,95242.00
2023-05-05T06:35:35.202Z,95242.00
2023-05-05T06:36:35.242Z,95240.00
2023-05-05T06:37:35.166Z,95240.00
2023-05-05T06:38:35.171Z,95238.00
2023-05-05T06:39:35.215Z,95237.00
2023-05-05T06:40:35.742Z,95235.00
2023-05-05T06:41:35.190Z,95233.00
2023-05-05T06:42:35.166Z,95235.00
2023-05-05T06:43:35.181Z,95231.00
2023-05-05T06:44:35.163Z,95233.00
2023-05-05T06:45:35.167Z,95209.00
2023-05-05T06:46:35.260Z,95207.00
2023-05-05T06:47:35.214Z,95205.00
2023-05-05T06:48:35.178Z,95205.00
2023-05-05T06:49:35.186Z,95203.00
2023-05-05T06:50:35.197Z,95223.00
2023-05-05T06:51:35.170Z,95223.00
2023-05-05T06:52:35.264Z,95223.00
2023-05-05T06:53:35.693Z,95223.00
2023-05-05T06:54:35.728Z,95223.00
2023-05-05T06:55:35.244Z,95225.00
2023-05-05T06:56:35.749Z,95225.00
2023-05-05T06:57:35.237Z,95225.00
2023-05-05T06:58:35.708Z,95223.00
2023-05-05T06:59:35.523Z,95227.00
2023-05-05T07:00:35.339Z,95225.00
2023-05-05T07:01:35.324Z,95225.00
2023-05-05T07:02:35.373Z,95225.00
2023-05-05T07:03:35.395Z,95227.00
2023-05-05T07:04:35.728Z,95225.00
2023-05-05T07:05:35.352Z,95223.00
2023-05-05T07:06:35.367Z,95223.00
2023-05-05T07:07:35.423Z,95225.00
2023-05-05T07:08:35.740Z,95219.00
2023-05-05T07:09:35.498Z,95217.00
2023-05-05T07:10:35.509Z,95219.00
2023-05-05T07:11:35.570Z,95219.00
2023-05-05T07:12:35.569Z,95221.00
2023-05-05T07:13:35.704Z,95217.00
2023-05-05T07:14:35.663Z,95217.00
2023-05-05T07:15:35.719Z,95219.00
2023-05-05T07:16:35.756Z,95215.00
2023-05-05T07:17:35.827Z,95213.00
2023-05-05T07:18:35.838Z,95213.00
2023-05-05T07:19:35.872Z,95213.00
2023-05-05T07:20:35.955Z,95209.00
2023-05-05T07:21:36.031Z,95207.00
2023-05-05T07:22:36.074Z,95207.00
2023-05-05T07:23:36.368Z,95203.00
2023-05-05T07:24:36.289Z,95201.00
2023-05-05T07:25:36.196Z,95201.00
2023-05-05T07:26:36.197Z,95201.00
2023-05-05T07:27:36.283Z,95197.00
2023-05-05T07:28:36.281Z,95197.00
2023-05-05T07:29:36.409Z,95201.00
2023-05-05T07:30:36.404Z,95178.00
2023-05-05T07:31:36.851Z,95182.00
2023-05-05T07:32:36.586Z,95180.00
2023-05-05T07:33:36.562Z,95178.00
2023-05-05T07:34:36.577Z,95178.00
2023-05-05T07:35:36.746Z,95178.00
2023-05-05T07:36:36.568Z,95172.00
2023-05-05T07:37:36.577Z,95174.00
2023-05-05T07:38:36.803Z,95172.00
2023-05-05T07:39:36.766Z,95168.00
2023-05-05T07:40:36.794Z,95170.00
2023-05-05T07:41:36.608Z,95168.00
2023-05-05T07:42:36.699Z,95168.00
2023-05-05T07:43:38.313Z,95158.00
2023-05-05T07:44:37.292Z,95158.00
2023-05-05T07:45:36.886Z,95152.00
2023-05-05T07:46:37.006Z,95150.00
2023-05-05T07:47:36.978Z,95154.00
2023-05-05T07:48:36.930Z,95148.00
2023-05-05T07:49:36.890Z,95150.00
2023-05-05T07:50:37.200Z,95146.00
2023-05-05T07:51:36.920Z,95142.00
2023-05-05T07:52:45.222Z,95146.00
2023-05-05T07:53:37.889Z,95142.00
2023-05-05T07:54:36.927Z,95142.00
2023-05-05T07:55:37.219Z,95142.00
2023-05-05T07:56:36.917Z,95140.00
2023-05-05T07:57:36.909Z,95137.00
2023-05-05T07:58:36.904Z,95137.00
2023-05-05T07:59:36.823Z,95138.00
2023-05-05T08:00:37.278Z,95135.00
2023-05-05T08:01:36.842Z,95137.00
2023-05-05T08:02:36.996Z,95135.00
2023-05-05T08:03:37.273Z,95137.00
2023-05-05T08:04:37.050Z,95137.00
2023-05-05T08:05:37.063Z,95137.00
2023-05-05T08:06:37.094Z,95137.00
2023-05-05T08:07:37.163Z,95135.00
2023-05-05T08:08:37.220Z,95135.00
2023-05-05T08:09:37.285Z,95135.00
2023-05-05T08:10:37.317Z,95135.00
2023-05-05T08:11:37.396Z,95133.00
2023-05-05T08:12:37.505Z,95131.00
2023-05-05T08:13:37.465Z,95131.00
2023-05-05T08:14:37.518Z,95131.00
2023-05-05T08:15:37.657Z,95127.00
2023-05-05T08:16:37.680Z,95129.00
2023-05-05T08:17:37.803Z,95125.00
2023-05-05T08:18:37.779Z,95123.00
2023-05-05T08:19:37.868Z,95121.00
2023-05-05T08:20:38.279Z,95117.00
2023-05-05T08:21:37.835Z,95119.00
2023-05-05T08:22:37.821Z,95119.00
2023-05-05T08:23:37.998Z,95117.00
2023-05-05T08:24:37.944Z,95121.00
2023-05-05T08:25:38.014Z,95119.00
2023-05-05T08:26:38.047Z,95115.00
2023-05-05T08:27:38.160Z,95115.00
2023-05-05T08:28:38.168Z,95113.00
2023-05-05T08:29:38.248Z,95113.00
2023-05-05T08:30:38.287Z,95113.00
2023-05-05T08:31:38.438Z,95107.00
2023-05-05T08:32:38.505Z,95107.00
2023-05-05T08:33:38.475Z,95105.00
2023-05-05T08:34:38.592Z,95105.00
2023-05-05T08:35:38.606Z,95103.00
2023-05-05T08:36:38.544Z,95101.00
2023-05-05T08:37:38.820Z,95097.00
2023-05-05T08:38:38.656Z,95099.00
2023-05-05T08:39:39.297Z,95095.00
2023-05-05T08:40:38.737Z,95093.00
2023-05-05T08:41:38.732Z,95091.00
2023-05-05T08:42:39.721Z,95091.00
2023-05-05T08:43:38.696Z,95090.00
2023-05-05T08:44:38.702Z,95088.00
2023-05-05T08:45:38.702Z,95086.00
2023-05-05T08:46:39.304Z,95082.00
2023-05-05T08:47:39.030Z,95084.00
2023-05-05T08:48:38.821Z,95082.00
2023-05-05T08:49:38.841Z,95082.00
2023-05-05T08:50:38.892Z,95078.00
2023-05-05T08:51:38.943Z,95082.00
2023-05-05T08:52:38.956Z,95078.00
2023-05-05T08:53:39.003Z,95078.00
2023-05-05T08:54:39.268Z,95076.00
2023-05-05T08:55:39.136Z,95074.00
2023-05-05T08:56:39.197Z,95074.00
2023-05-05T08:57:39.269Z,95074.00
2023-05-05T08:58:39.294Z,95070.00
2023-05-05T08:59:39.373Z,95072.00
2023-05-05T09:00:39.424Z,95072.00
2023-05-05T09:01:39.500Z,95068.00
2023-05-05T09:02:39.604Z,95072.00
2023-05-05T09:03:39.648Z,95066.00
2023-05-05T09:04:39.763Z,95066.00
2023-05-05T09:05:39.738Z,95064.00
2023-05-05T09:06:39.744Z,95064.00
2023-05-05T09:07:39.998Z,95060.00
2023-05-05T09:08:39.908Z,95058.00
2023-05-05T09:09:39.945Z,95058.00
2023-05-05T09:10:39.990Z,95056.00
2023-05-05T09:11:39.998Z,95056.00
2023-05-05T09:12:40.407Z,95054.00
2023-05-05T09:13:40.294Z,95054.00
2023-05-05T09:14:40.026Z,95054.00
2023-05-05T09:15:40.094Z,95050.00
2023-05-05T09:16:40.272Z,95052.00
2023-05-05T09:17:40.230Z,95046.00
2023-05-05T09:18:40.233Z,95044.00
2023-05-05T09:19:40.767Z,95043.00
2023-05-05T09:20:40.350Z,95041.00
2023-05-05T09:21:40.438Z,95035.00
2023-05-05T09:22:40.522Z,95035.00
2023-05-05T09:23:40.816Z,95037.00
2023-05-05T09:24:40.616Z,95035.00
2023-05-05T09:25:40.684Z,95035.00
2023-05-05T09:26:40.737Z,95033.00
2023-05-05T09:27:40.802Z,95033.00
2023-05-05T09:28:41.246Z,95027.00
2023-05-05T09:29:40.848Z,95029.00
2023-05-05T09:30:41.325Z,95029.00
2023-05-05T09:31:41.255Z,95027.00
2023-05-05T09:32:40.991Z,95023.00
2023-05-05T09:33:41.051Z,95023.00
2023-05-05T09:34:41.060Z,95023.00
2023-05-05T09:35:41.152Z,95019.00
2023-05-05T09:36:41.330Z,95021.00
2023-05-05T09:37:41.242Z,95019.00
2023-05-05T09:38:41.296Z,95019.00
2023-05-05T09:39:41.419Z,95021.00
2023-05-05T09:40:41.330Z,95019.00
2023-05-05T09:41:41.415Z,95015.00
2023-05-05T09:42:41.444Z,95015.00
2023-05-05T09:43:41.845Z,95011.00
2023-05-05T09:44:41.449Z,95013.00
2023-05-05T09:45:41.465Z,95015.00
2023-05-05T09:46:43.375Z,95007.00
2023-05-05T09:47:41.561Z,95007.00
2023-05-05T09:48:41.800Z,95009.00
2023-05-05T09:49:41.594Z,95003.00
2023-05-05T09:50:41.627Z,95001.00
2023-05-05T09:51:41.655Z,95001.00
2023-05-05T09:52:41.688Z,95003.00
2023-05-05T09:53:41.813Z,95001.00
2023-05-05T09:54:41.737Z,95001.00
2023-05-05T09:55:41.853Z,95001.00
2023-05-05T09:56:41.817Z,94999.00
2023-05-05T09:57:41.847Z,95001.00
2023-05-05T09:58:41.941Z,94999.00
2023-05-05T09:59:42.267Z,95001.00
2023-05-05T10:00:41.956Z,94997.00
2023-05-05T10:01:42.013Z,94996.00
2023-05-05T10:02:42.191Z,94994.00
2023-05-05T10:03:42.080Z,94992.00
2023-05-05T10:04:42.165Z,94992.00
2023-05-05T10:05:42.113Z,94988.00
2023-05-05T10:06:42.193Z,94988.00
2023-05-05T10:07:42.255Z,94986.00
2023-05-05T10:08:42.266Z,94988.00
2023-05-05T10:09:42.419Z,94988.00
2023-05-05T10:10:42.375Z,94984.00
2023-05-05T10:11:42.537Z,94980.00
2023-05-05T10:12:42.820Z,94980.00
2023-05-05T10:13:42.571Z,94978.00
2023-05-05T10:14:42.620Z,94978.00
2023-05-05T10:15:43.310Z,94976.00
2023-05-05T10:16:42.828Z,94972.00
2023-05-05T10:17:53.914Z,94970.00
2023-05-05T10:18:43.661Z,94966.00
2023-05-05T10:19:42.630Z,94962.00
2023-05-05T10:20:42.618Z,94964.00
2023-05-05T10:21:42.625Z,94964.00
2023-05-05T10:22:42.595Z,94958.00
2023-05-05T10:23:42.616Z,94958.00
2023-05-05T10:24:42.609Z,94956.00
2023-05-05T10:25:42.570Z,94958.00
2023-05-05T10:26:43.303Z,94956.00
2023-05-05T10:27:42.691Z,94954.00
2023-05-05T10:28:42.567Z,94954.00
2023-05-05T10:29:42.580Z,94952.00
2023-05-05T10:30:42.572Z,94954.00
2023-05-05T10:31:42.569Z,94950.00
2023-05-05T10:33:42.638Z,94962.00
2023-05-05T10:34:42.565Z,94962.00
2023-05-05T10:35:42.570Z,94960.00
2023-05-05T10:36:42.566Z,94960.00
2023-05-05T10:37:42.812Z,94956.00
2023-05-05T10:38:42.526Z,94952.00
2023-05-05T10:39:42.481Z,94952.00
2023-05-05T10:40:42.524Z,94947.00
2023-05-05T10:41:42.784Z,94945.00
2023-05-05T10:42:42.486Z,94929.00
2023-05-05T10:43:42.545Z,94941.00
2023-05-05T10:44:42.528Z,94945.00
2023-05-05T10:45:42.584Z,94933.00
2023-05-05T10:46:42.586Z,94933.00
2023-05-05T10:47:42.518Z,94941.00
2023-05-05T10:48:43.328Z,94937.00
2023-05-05T10:49:43.290Z,94935.00
2023-05-05T10:50:42.427Z,94933.00
2023-05-05T10:51:42.804Z,94935.00
2023-05-05T10:52:42.814Z,94933.00
2023-05-05T10:53:43.309Z,94931.00
2023-05-05T10:54:42.430Z,94929.00
2023-05-05T10:55:42.844Z,94931.00
2023-05-05T10:56:42.444Z,94915.00
2023-05-05T10:57:42.383Z,94923.00
2023-05-05T10:58:58.344Z,94898.00
2023-05-05T10:59:43.570Z,94921.00
2023-05-05T11:00:42.383Z,94902.00
2023-05-05T11:01:42.396Z,94892.00
2023-05-05T11:02:42.914Z,94892.00
2023-05-05T11:03:42.408Z,94900.00
2023-05-05T11:04:42.320Z,94890.00
2023-05-05T11:05:42.356Z,94886.00
2023-05-05T11:06:42.816Z,94890.00
2023-05-05T11:07:42.371Z,94882.00
2023-05-05T11:08:42.303Z,94880.00
2023-05-05T11:09:42.324Z,94880.00
2023-05-05T11:10:42.443Z,94876.00
2023-05-05T11:11:42.326Z,94874.00
2023-05-05T11:12:42.459Z,94868.00
2023-05-05T11:13:42.314Z,94866.00
2023-05-05T11:14:42.249Z,94862.00
2023-05-05T11:15:42.373Z,94862.00
2023-05-05T11:16:42.293Z,94858.00
2023-05-05T11:17:42.279Z,94857.00
2023-05-05T11:18:42.307Z,94862.00
2023-05-05T11:19:42.298Z,94853.00
2023-05-05T11:20:42.303Z,94872.00
2023-05-05T11:21:42.338Z,94870.00
2023-05-05T11:22:42.375Z,94851.00
2023-05-05T11:23:42.301Z,94866.00
2023-05-05T11:24:42.366Z,94864.00
2023-05-05T11:25:42.385Z,94860.00
2023-05-05T11:26:42.384Z,94858.00
2023-05-05T11:27:42.366Z,94860.00
2023-05-05T11:28:42.377Z,94860.00
2023-05-05T11:29:42.524Z,94857.00
2023-05-05T11:30:42.438Z,94858.00
2023-05-05T11:31:42.591Z,94855.00
2023-05-05T11:32:42.511Z,94853.00
2023-05-05T11:33:42.436Z,94849.00
2023-05-05T11:34:42.522Z,94851.00
2023-05-05T11:35:42.497Z,94855.00
2023-05-05T11:36:42.523Z,94849.00
2023-05-05T11:37:42.468Z,94849.00
2023-05-05T11:38:42.517Z,94845.00
2023-05-05T11:39:42.533Z,94845.00
2023-05-05T11:40:42.536Z,94843.00
2023-05-05T11:41:42.531Z,94841.00
2023-05-05T11:42:42.538Z,94839.00
2023-05-05T11:43:42.566Z,94837.00
2023-05-05T11:44:42.598Z,94829.00
2023-05-05T11:45:42.591Z,94827.00
2023-05-05T11:46:42.689Z,94825.00